Time,TemperatureF,DewpointF,PressureIn,WindDirection,WindDirectionDegrees,WindSpeedMPH,WindSpeedGustMPH,Humidity,HourlyPrecipIn,Conditions,Clouds,dailyrainin,SoftwareType,DateUTC
2013-02-13 00:01:00,39.0,17.0,29.89,North,0,0.0,2.0,40,0.00,,,0.00,,2013-02-13 05:01:00,
2013-02-13 00:12:00,39.0,17.0,29.88,North,0,0.0,3.0,40,0.00,,,0.00,,2013-02-13 05:12:00,
2013-02-13 00:22:00,39.0,17.0,29.88,North,0,0.0,3.0,40,0.00,,,0.00,,2013-02-13 05:22:00,
2013-02-13 00:32:00,40.0,18.0,29.87,North,0,0.0,4.0,41,0.00,,,0.00,,2013-02-13 05:32:00,
2013-02-13 00:42:00,40.0,18.0,29.87,North,0,0.0,4.0,41,0.00,,,0.00,,2013-02-13 05:42:00,
2013-02-13 00:52:00,40.0,18.0,29.86,North,0,0.0,3.0,40,0.00,,,0.00,,2013-02-13 05:52:00,
2013-02-13 01:02:00,39.0,17.0,29.85,North,0,0.0,1.0,41,0.00,,,0.00,,2013-02-13 06:02:00,
2013-02-13 01:11:00,39.0,22.0,29.85,North,0,0.0,2.0,50,0.00,,,0.00,,2013-02-13 06:11:00,
2013-02-13 01:21:00,39.0,22.0,29.85,North,0,0.0,2.0,50,0.00,,,0.00,,2013-02-13 06:21:00,
2013-02-13 01:32:00,39.0,23.0,29.84,North,0,0.0,2.0,52,0.00,,,0.00,,2013-02-13 06:32:00,
2013-02-13 01:42:00,39.0,23.0,29.84,North,0,0.0,3.0,53,0.00,,,0.00,,2013-02-13 06:42:00,
2013-02-13 01:52:00,39.0,23.0,29.84,North,0,0.0,3.0,53,0.00,,,0.00,,2013-02-13 06:52:00,
2013-02-13 02:02:00,38.0,25.0,29.82,North,0,0.0,1.0,58,0.00,,,0.00,,2013-02-13 07:02:00,
2013-02-13 02:11:00,38.0,26.0,29.83,North,0,0.0,0.0,61,0.00,,,0.00,,2013-02-13 07:11:00,
2013-02-13 02:22:00,38.0,26.0,29.83,North,0,0.0,0.0,61,0.00,,,0.00,,2013-02-13 07:22:00,
2013-02-13 02:32:00,38.0,27.0,29.82,North,0,0.0,1.0,64,0.00,,,0.00,,2013-02-13 07:32:00,
2013-02-13 02:42:00,38.0,28.0,29.81,North,0,0.0,1.0,66,0.00,,,0.00,,2013-02-13 07:42:00,
2013-02-13 02:52:00,38.0,28.0,29.81,North,0,0.0,1.0,66,0.00,,,0.00,,2013-02-13 07:52:00,
2013-02-13 03:01:00,38.0,28.0,29.81,North,0,0.0,0.0,66,0.00,,,0.00,,2013-02-13 08:01:00,
2013-02-13 03:11:00,37.0,27.0,29.81,North,0,0.0,0.0,68,0.00,,,0.00,,2013-02-13 08:11:00,
2013-02-13 03:21:00,37.0,27.0,29.81,North,0,0.0,0.0,68,0.00,,,0.00,,2013-02-13 08:21:00,
2013-02-13 03:32:00,37.0,29.0,29.80,North,0,0.0,1.0,74,0.00,,,0.00,,2013-02-13 08:32:00,
2013-02-13 03:43:00,37.0,29.0,29.80,North,0,0.0,1.0,74,0.00,,,0.00,,2013-02-13 08:43:00,
2013-02-13 03:52:00,37.0,31.0,29.78,WSW,258,1.0,5.0,80,0.00,,,0.00,,2013-02-13 08:52:00,
2013-02-13 04:01:00,38.0,32.0,29.78,North,0,0.0,2.0,79,0.00,,,0.00,,2013-02-13 09:01:00,
2013-02-13 04:11:00,37.0,31.0,29.77,North,0,0.0,0.0,79,0.00,,,0.00,,2013-02-13 09:11:00,
2013-02-13 04:21:00,37.0,31.0,29.77,North,0,0.0,0.0,79,0.00,,,0.00,,2013-02-13 09:21:00,
2013-02-13 04:31:00,38.0,32.0,29.76,North,0,0.0,2.0,79,0.00,,,0.00,,2013-02-13 09:31:00,
2013-02-13 04:42:00,38.0,32.0,29.76,North,0,0.0,0.0,78,0.00,,,0.00,,2013-02-13 09:42:00,
2013-02-13 04:52:00,38.0,32.0,29.76,North,0,0.0,0.0,78,0.00,,,0.00,,2013-02-13 09:52:00,
2013-02-13 05:01:00,38.0,31.0,29.75,North,0,0.0,0.0,76,0.00,,,0.00,,2013-02-13 10:01:00,
2013-02-13 05:11:00,38.0,31.0,29.74,North,0,0.0,1.0,76,0.00,,,0.00,,2013-02-13 10:11:00,
2013-02-13 05:21:00,38.0,31.0,29.74,North,0,0.0,1.0,76,0.00,,,0.00,,2013-02-13 10:21:00,
2013-02-13 05:32:00,37.0,30.0,29.74,North,0,0.0,0.0,77,0.00,,,0.00,,2013-02-13 10:32:00,
2013-02-13 05:42:00,37.0,30.0,29.74,North,0,0.0,0.0,75,0.00,,,0.00,,2013-02-13 10:42:00,
2013-02-13 05:52:00,37.0,30.0,29.74,North,0,0.0,0.0,75,0.00,,,0.00,,2013-02-13 10:52:00,
2013-02-13 06:01:00,37.0,31.0,29.74,North,0,0.0,0.0,78,0.00,,,0.00,,2013-02-13 11:01:00,
2013-02-13 06:11:00,37.0,30.0,29.74,North,0,0.0,0.0,76,0.00,,,0.00,,2013-02-13 11:11:00,
2013-02-13 06:22:00,37.0,30.0,29.74,North,0,0.0,0.0,76,0.00,,,0.00,,2013-02-13 11:22:00,
2013-02-13 06:32:00,37.0,28.0,29.74,North,0,0.0,1.0,71,0.00,,,0.00,,2013-02-13 11:32:00,
2013-02-13 06:42:00,37.0,28.0,29.74,North,0,0.0,0.0,71,0.00,,,0.00,,2013-02-13 11:42:00,
2013-02-13 06:52:00,37.0,28.0,29.74,North,0,0.0,0.0,71,0.00,,,0.00,,2013-02-13 11:52:00,
2013-02-13 07:02:00,37.0,30.0,29.73,North,0,0.0,1.0,77,0.00,,,0.00,,2013-02-13 12:02:00,
2013-02-13 07:11:00,35.0,31.0,29.73,North,0,0.0,0.0,85,0.01,,,0.01,,2013-02-13 12:11:00,
2013-02-13 07:22:00,35.0,31.0,29.73,North,0,0.0,0.0,85,0.01,,,0.01,,2013-02-13 12:22:00,
2013-02-13 07:32:00,35.0,32.0,29.72,North,0,0.0,0.0,89,0.01,,,0.01,,2013-02-13 12:32:00,
2013-02-13 07:42:00,34.0,31.0,29.72,North,0,0.0,0.0,89,0.01,,,0.01,,2013-02-13 12:42:00,
2013-02-13 07:52:00,34.0,31.0,29.72,North,0,0.0,0.0,89,0.01,,,0.01,,2013-02-13 12:52:00,
2013-02-13 08:02:00,34.0,32.0,29.73,North,0,0.0,0.0,91,0.01,,,0.01,,2013-02-13 13:02:00,
2013-02-13 08:11:00,34.0,32.0,29.74,North,0,0.0,1.0,92,0.01,,,0.02,,2013-02-13 13:11:00,
2013-02-13 08:21:00,34.0,32.0,29.74,North,0,0.0,1.0,92,0.01,,,0.02,,2013-02-13 13:21:00,
2013-02-13 08:32:00,34.0,32.0,29.72,North,0,0.0,0.0,93,0.01,,,0.02,,2013-02-13 13:32:00,
2013-02-13 08:42:00,35.0,33.0,29.72,North,0,0.0,2.0,93,0.01,,,0.02,,2013-02-13 13:42:00,
2013-02-13 08:52:00,35.0,33.0,29.72,North,0,0.0,2.0,93,0.01,,,0.02,,2013-02-13 13:52:00,
2013-02-13 09:01:00,34.0,32.0,29.73,North,0,0.0,2.0,94,0.01,,,0.02,,2013-02-13 14:01:00,
2013-02-13 09:11:00,34.0,32.0,29.72,North,0,0.0,2.0,94,0.00,,,0.02,,2013-02-13 14:11:00,
2013-02-13 09:21:00,34.0,32.0,29.72,North,0,0.0,2.0,94,0.00,,,0.02,,2013-02-13 14:21:00,
2013-02-13 09:32:00,34.0,33.0,29.72,West,266,1.0,2.0,95,0.01,,,0.03,,2013-02-13 14:32:00,
2013-02-13 09:42:00,34.0,32.0,29.71,North,0,0.0,1.0,94,0.01,,,0.03,,2013-02-13 14:42:00,
2013-02-13 09:52:00,34.0,32.0,29.71,North,0,0.0,1.0,94,0.01,,,0.03,,2013-02-13 14:52:00,
2013-02-13 10:01:00,34.0,33.0,29.70,North,0,0.0,1.0,95,0.02,,,0.04,,2013-02-13 15:01:00,
2013-02-13 10:11:00,34.0,33.0,29.70,North,0,0.0,2.0,95,0.02,,,0.04,,2013-02-13 15:11:00,
2013-02-13 10:21:00,34.0,33.0,29.70,North,0,0.0,2.0,95,0.02,,,0.04,,2013-02-13 15:21:00,
2013-02-13 10:32:00,34.0,33.0,29.69,North,0,0.0,2.0,95,0.01,,,0.04,,2013-02-13 15:32:00,
2013-02-13 10:42:00,34.0,33.0,29.69,North,0,0.0,2.0,95,0.01,,,0.04,,2013-02-13 15:42:00,
2013-02-13 10:52:00,35.0,34.0,29.68,North,0,0.0,3.0,96,0.02,,,0.05,,2013-02-13 15:52:00,
2013-02-13 11:01:00,35.0,34.0,29.68,North,0,0.0,4.0,96,0.01,,,0.05,,2013-02-13 16:01:00,
2013-02-13 11:11:00,35.0,34.0,29.68,North,0,0.0,3.0,96,0.01,,,0.05,,2013-02-13 16:11:00,
2013-02-13 11:21:00,35.0,34.0,29.68,North,0,0.0,3.0,96,0.01,,,0.05,,2013-02-13 16:21:00,
2013-02-13 11:32:00,35.0,34.0,29.67,North,0,0.0,3.0,96,0.01,,,0.05,,2013-02-13 16:32:00,
2013-02-13 11:42:00,35.0,34.0,29.67,North,0,0.0,3.0,96,0.01,,,0.05,,2013-02-13 16:42:00,
2013-02-13 11:52:00,35.0,34.0,29.66,North,0,0.0,7.0,96,0.00,,,0.05,,2013-02-13 16:52:00,
2013-02-13 12:01:00,35.0,34.0,29.65,North,0,0.0,4.0,96,0.00,,,0.05,,2013-02-13 17:01:00,
2013-02-13 12:11:00,35.0,34.0,29.65,West,271,1.0,4.0,96,0.00,,,0.05,,2013-02-13 17:11:00,
2013-02-13 12:21:00,35.0,34.0,29.65,West,271,1.0,4.0,96,0.00,,,0.05,,2013-02-13 17:21:00,
2013-02-13 12:32:00,35.0,34.0,29.63,West,264,1.0,5.0,96,0.00,,,0.05,,2013-02-13 17:32:00,
2013-02-13 12:42:00,35.0,34.0,29.63,West,264,1.0,5.0,96,0.00,,,0.05,,2013-02-13 17:42:00,
2013-02-13 12:52:00,35.0,34.0,29.63,WNW,297,1.0,3.0,96,0.00,,,0.05,,2013-02-13 17:52:00,
2013-02-13 13:02:00,35.0,34.0,29.61,West,264,2.0,6.0,96,0.00,,,0.05,,2013-02-13 18:02:00,
2013-02-13 13:11:00,35.0,34.0,29.60,West,260,2.0,5.0,96,0.00,,,0.05,,2013-02-13 18:11:00,
2013-02-13 13:23:00,35.0,34.0,29.60,West,260,2.0,5.0,96,0.00,,,0.05,,2013-02-13 18:23:00,
2013-02-13 13:32:00,35.0,34.0,29.59,North,0,0.0,3.0,96,0.00,,,0.05,,2013-02-13 18:32:00,
2013-02-13 13:42:00,35.0,34.0,29.59,North,0,0.0,3.0,96,0.00,,,0.05,,2013-02-13 18:42:00,
2013-02-13 13:52:00,35.0,34.0,29.58,West,273,1.0,3.0,96,0.00,,,0.05,,2013-02-13 18:52:00,
2013-02-13 14:01:00,35.0,34.0,29.58,North,0,0.0,4.0,96,0.00,,,0.05,,2013-02-13 19:01:00,
2013-02-13 14:11:00,35.0,34.0,29.57,North,0,0.0,3.0,97,0.01,,,0.06,,2013-02-13 19:11:00,
2013-02-13 14:21:00,35.0,34.0,29.57,North,0,0.0,3.0,97,0.01,,,0.06,,2013-02-13 19:21:00,
2013-02-13 14:32:00,35.0,34.0,29.56,North,0,0.0,3.0,97,0.01,,,0.06,,2013-02-13 19:32:00,
2013-02-13 14:42:00,35.0,34.0,29.56,North,0,0.0,3.0,97,0.01,,,0.06,,2013-02-13 19:42:00,
2013-02-13 14:52:00,35.0,34.0,29.56,West,273,1.0,3.0,97,0.01,,,0.06,,2013-02-13 19:52:00,
2013-02-13 15:02:00,35.0,34.0,29.55,North,0,0.0,3.0,97,0.02,,,0.07,,2013-02-13 20:02:00,
2013-02-13 15:11:00,35.0,34.0,29.56,WNW,283,1.0,3.0,97,0.01,,,0.07,,2013-02-13 20:11:00,
2013-02-13 15:21:00,35.0,34.0,29.56,WNW,283,1.0,3.0,97,0.01,,,0.07,,2013-02-13 20:21:00,
2013-02-13 15:32:00,35.0,34.0,29.57,West,271,1.0,4.0,97,0.02,,,0.08,,2013-02-13 20:32:00,
2013-02-13 15:42:00,35.0,34.0,29.57,WSW,237,1.0,4.0,97,0.03,,,0.09,,2013-02-13 20:42:00,
2013-02-13 15:52:00,35.0,34.0,29.57,WSW,237,1.0,4.0,97,0.03,,,0.09,,2013-02-13 20:52:00,
2013-02-13 16:01:00,35.0,34.0,29.56,West,277,1.0,3.0,97,0.02,,,0.09,,2013-02-13 21:01:00,
2013-02-13 16:11:00,35.0,34.0,29.56,West,277,1.0,3.0,97,0.02,,,0.09,,2013-02-13 21:11:00,
2013-02-13 16:21:00,36.0,35.0,29.56,West,277,2.0,4.0,97,0.02,,,0.09,,2013-02-13 21:21:00,
2013-02-13 16:31:00,36.0,35.0,29.55,West,280,1.0,6.0,97,0.01,,,0.09,,2013-02-13 21:31:00,
2013-02-13 16:42:00,36.0,35.0,29.55,WSW,254,1.0,4.0,97,0.00,,,0.09,,2013-02-13 21:42:00,
2013-02-13 16:52:00,36.0,35.0,29.55,WSW,254,1.0,4.0,97,0.00,,,0.09,,2013-02-13 21:52:00,
2013-02-13 17:02:00,36.0,35.0,29.56,West,263,1.0,7.0,97,0.00,,,0.09,,2013-02-13 22:02:00,
2013-02-13 17:11:00,36.0,35.0,29.56,South,183,4.0,12.0,97,0.00,,,0.09,,2013-02-13 22:11:00,
2013-02-13 17:21:00,36.0,35.0,29.56,South,183,4.0,12.0,97,0.00,,,0.09,,2013-02-13 22:21:00,
2013-02-13 17:31:00,37.0,36.0,29.57,WSW,238,5.0,13.0,97,0.01,,,0.10,,2013-02-13 22:31:00,
2013-02-13 17:42:00,37.0,36.0,29.57,WSW,238,5.0,13.0,97,0.01,,,0.10,,2013-02-13 22:42:00,
2013-02-13 17:52:00,37.0,36.0,29.57,WNW,285,3.0,10.0,97,0.01,,,0.10,,2013-02-13 22:52:00,
2013-02-13 18:01:00,37.0,36.0,29.58,WNW,283,6.0,11.0,97,0.01,,,0.10,,2013-02-13 23:01:00,
2013-02-13 18:11:00,36.0,35.0,29.59,West,259,8.0,21.0,96,0.02,,,0.11,,2013-02-13 23:11:00,
2013-02-13 18:21:00,36.0,35.0,29.59,West,259,8.0,21.0,96,0.02,,,0.11,,2013-02-13 23:21:00,
2013-02-13 18:32:00,35.0,34.0,29.61,West,271,12.0,23.0,95,0.02,,,0.12,,2013-02-13 23:32:00,
2013-02-13 18:42:00,35.0,34.0,29.61,West,271,12.0,23.0,95,0.02,,,0.12,,2013-02-13 23:42:00,
2013-02-13 18:52:00,34.0,33.0,29.61,WNW,284,8.0,19.0,95,0.02,,,0.12,,2013-02-13 23:52:00,
2013-02-13 19:02:00,33.0,31.0,29.63,West,279,7.0,16.0,94,0.02,,,0.12,,2013-02-14 00:02:00,
2013-02-13 19:11:00,33.0,31.0,29.63,West,279,7.0,16.0,94,0.02,,,0.12,,2013-02-14 00:11:00,
2013-02-13 19:22:00,32.0,30.0,29.65,WNW,301,8.0,22.0,91,0.01,,,0.12,,2013-02-14 00:22:00,
2013-02-13 19:32:00,31.0,28.0,29.65,NW,309,7.0,22.0,90,0.00,,,0.12,,2013-02-14 00:32:00,
2013-02-13 19:42:00,31.0,28.0,29.65,NW,309,7.0,22.0,90,0.00,,,0.12,,2013-02-14 00:42:00,
2013-02-13 19:52:00,31.0,28.0,29.65,NW,309,11.0,24.0,89,0.00,,,0.12,,2013-02-14 00:52:00,
2013-02-13 20:01:00,31.0,28.0,29.65,WNW,300,8.0,17.0,89,0.00,,,0.12,,2013-02-14 01:01:00,
2013-02-13 20:11:00,30.0,27.0,29.66,WNW,287,12.0,26.0,88,0.00,,,0.12,,2013-02-14 01:11:00,
2013-02-13 20:21:00,30.0,27.0,29.66,WNW,287,12.0,26.0,88,0.00,,,0.12,,2013-02-14 01:21:00,
2013-02-13 20:32:00,30.0,27.0,29.68,West,275,13.0,26.0,87,0.00,,,0.12,,2013-02-14 01:32:00,
2013-02-13 20:41:00,30.0,27.0,29.68,West,275,13.0,26.0,87,0.00,,,0.12,,2013-02-14 01:41:00,
2013-02-13 20:52:00,30.0,27.0,29.67,WSW,237,3.0,20.0,88,0.00,,,0.12,,2013-02-14 01:52:00,
2013-02-13 21:01:00,30.0,27.0,29.68,WSW,248,6.0,17.0,88,0.00,,,0.12,,2013-02-14 02:01:00,
2013-02-13 21:11:00,30.0,27.0,29.68,West,273,6.0,30.0,88,0.00,,,0.12,,2013-02-14 02:11:00,
2013-02-13 21:21:00,30.0,27.0,29.68,West,273,6.0,30.0,88,0.00,,,0.12,,2013-02-14 02:21:00,
2013-02-13 21:31:00,30.0,27.0,29.69,West,263,10.0,19.0,88,0.00,,,0.12,,2013-02-14 02:31:00,
2013-02-13 21:41:00,30.0,27.0,29.69,West,263,10.0,19.0,88,0.00,,,0.12,,2013-02-14 02:41:00,
2013-02-13 21:52:00,30.0,27.0,29.69,West,263,10.0,19.0,88,0.00,,,0.12,,2013-02-14 02:52:00,
2013-02-13 22:02:00,30.0,27.0,29.69,WNW,288,9.0,20.0,87,0.00,,,0.12,,2013-02-14 03:02:00,
2013-02-13 22:11:00,30.0,27.0,29.68,West,267,7.0,29.0,87,0.00,,,0.12,,2013-02-14 03:11:00,
2013-02-13 22:22:00,30.0,27.0,29.68,West,267,7.0,29.0,87,0.00,,,0.12,,2013-02-14 03:22:00,
2013-02-13 22:31:00,30.0,27.0,29.70,WNW,285,8.0,31.0,87,0.00,,,0.12,,2013-02-14 03:31:00,
2013-02-13 22:42:00,30.0,27.0,29.70,WNW,285,8.0,31.0,87,0.00,,,0.12,,2013-02-14 03:42:00,
2013-02-13 22:52:00,30.0,27.0,29.70,WNW,301,7.0,26.0,87,0.00,,,0.12,,2013-02-14 03:52:00,
2013-02-13 23:01:00,29.0,26.0,29.71,WSW,257,4.0,17.0,88,0.00,,,0.12,,2013-02-14 04:01:00,
2013-02-13 23:12:00,29.0,26.0,29.72,NW,311,4.0,26.0,89,0.00,,,0.12,,2013-02-14 04:12:00,
2013-02-13 23:21:00,29.0,26.0,29.72,NW,311,4.0,26.0,89,0.00,,,0.12,,2013-02-14 04:21:00,
2013-02-13 23:32:00,29.0,26.0,29.72,NW,314,8.0,18.0,90,0.00,,,0.12,,2013-02-14 04:32:00,
2013-02-13 23:42:00,29.0,26.0,29.72,NW,314,8.0,18.0,90,0.00,,,0.12,,2013-02-14 04:42:00,
2013-02-13 23:52:00,29.0,26.0,29.72,NW,314,9.0,22.0,90,0.00,,,0.12,,2013-02-14 04:52:00,